Enoch, Utah
Current Conditions -  °F | °C
As of 12:53 AM on Tuesday 27 Jan 2015 (Local Time) from KCDC Reporting Station
Broken Clouds Broken Clouds  
Wind Chill: 31°   Ceiling: 10000
Heat Index: 36°   Visibility: 10mi
Dew Point: 29°   Wind: 6mph
Humidity: 76%   Direction: 200°SSW
Pressure: 30.2"   Gusts: NA
Location:  37.7617°N, 113.219°W
Report Text: KCDC 270753Z AUTO 20005KT 10SM BKN100 02/M02 A3020 RMK AO2 SLP208 T00221017
Loading
Personal Weather Stations






























Interactive Weather Map New forecast layout! Learn more

10-Day Weather Forecast

Advertisements
Track Severe Weather on mobile